createdAt,value
2022-09-28T07:36:36.117Z,21.31
2022-09-28T07:40:05.974Z,26.54
2022-09-28T07:43:13.091Z,23.14
2022-09-28T07:46:16.977Z,22.12
2022-09-28T07:49:36.214Z,21.76
2022-09-28T07:53:01.198Z,21.69
2022-09-28T07:56:09.807Z,22.17
2022-09-28T07:59:37.106Z,23.34
2022-09-28T08:03:11.765Z,23.23
2022-09-28T08:06:17.188Z,23.01
2022-09-28T08:09:19.930Z,22.83
2022-09-28T08:12:44.274Z,22.72
2022-09-28T08:16:16.263Z,22.61
2022-09-28T08:20:12.826Z,22.54
2022-09-28T08:23:15.768Z,22.53
2022-09-28T08:26:18.420Z,22.53
2022-09-28T08:29:21.433Z,22.50
2022-09-28T08:32:26.613Z,22.47
2022-09-28T08:35:47.693Z,22.48
2022-09-28T08:38:56.810Z,22.45
2022-09-28T08:42:13.778Z,22.47
2022-09-28T08:45:35.966Z,22.45
2022-09-28T08:49:26.765Z,22.45
2022-09-28T08:52:58.235Z,22.43
2022-09-28T08:56:49.824Z,22.44
2022-09-28T08:59:58.589Z,22.48
2022-09-28T09:03:16.149Z,22.48
2022-09-28T09:06:53.133Z,22.48
2022-09-28T09:10:22.375Z,22.50
2022-09-28T09:13:36.508Z,22.52
2022-09-28T09:19:17.516Z,22.63
2022-09-28T09:22:51.981Z,22.68
2022-09-28T09:26:08.980Z,22.66
2022-09-28T09:29:26.996Z,22.65
2022-09-28T09:32:54.522Z,22.66
2022-09-28T09:36:18.124Z,22.71
2022-09-28T09:40:20.017Z,22.74
2022-09-28T09:43:50.087Z,22.79
2022-09-28T09:47:32.853Z,22.81
2022-09-28T09:50:51.644Z,22.86
2022-09-28T09:54:03.108Z,22.91
2022-09-28T09:57:20.592Z,22.92
2022-09-28T10:00:52.630Z,22.94
2022-09-28T10:04:29.221Z,22.92
2022-09-28T10:08:05.485Z,22.92
2022-09-28T10:11:17.392Z,22.92
2022-09-28T10:14:25.879Z,22.92
2022-09-28T10:18:02.258Z,22.91
2022-09-28T10:21:25.251Z,22.85
2022-09-28T10:24:45.320Z,22.81
2022-09-28T10:27:55.864Z,22.84
2022-09-28T10:31:37.345Z,22.90
2022-09-28T10:34:46.338Z,22.87
2022-09-28T10:38:17.387Z,22.92
2022-09-28T10:41:23.216Z,22.89
2022-09-28T10:44:35.013Z,22.93
2022-09-28T10:47:51.007Z,22.93
2022-09-28T10:51:04.950Z,22.94
2022-09-28T10:54:23.081Z,22.99
2022-09-28T10:57:40.885Z,22.94
2022-09-28T11:00:45.355Z,22.92
2022-09-28T11:03:56.468Z,23.01
2022-09-28T11:07:02.668Z,23.01
2022-09-28T11:10:06.122Z,23.03
2022-09-28T11:13:11.054Z,23.04
2022-09-28T11:16:29.699Z,23.07
2022-09-28T11:19:33.696Z,23.01
2022-09-28T11:22:44.516Z,22.85
2022-09-28T11:26:06.077Z,22.89
2022-09-28T11:29:30.447Z,22.88
2022-09-28T11:33:01.353Z,22.90
2022-09-28T11:36:44.161Z,22.92
2022-09-28T11:40:15.210Z,22.96
2022-09-28T11:43:59.836Z,22.98
2022-09-28T11:47:38.105Z,22.97
2022-09-28T11:50:52.502Z,22.92
2022-09-28T11:54:33.850Z,22.93
2022-09-28T11:57:42.176Z,22.93
2022-09-28T12:00:54.520Z,22.96
2022-09-28T12:04:13.939Z,22.96
2022-09-28T12:07:24.814Z,22.94
2022-09-28T12:10:55.550Z,22.93
2022-09-28T12:14:48.389Z,22.97
2022-09-28T12:18:07.442Z,23.03
2022-09-28T12:21:28.259Z,23.05
2022-09-28T12:24:40.528Z,22.97
2022-09-28T12:28:00.226Z,23.02
2022-09-28T12:31:24.144Z,22.98
2022-09-28T12:34:27.029Z,22.94
2022-09-28T12:37:54.551Z,22.82
2022-09-28T12:41:16.405Z,22.87
2022-09-28T12:44:37.422Z,22.93
2022-09-28T12:47:59.984Z,22.96
2022-09-28T12:51:37.454Z,22.91
2022-09-28T12:54:46.137Z,22.89
2022-09-28T12:58:06.639Z,22.89
2022-09-28T13:01:28.025Z,22.99
2022-09-28T13:04:58.046Z,23.04
2022-09-28T13:08:18.997Z,23.08
2022-09-28T13:11:33.491Z,23.13
2022-09-28T13:14:54.653Z,23.14
2022-09-28T13:18:31.218Z,23.16
2022-09-28T13:21:59.323Z,23.19
2022-09-28T13:25:13.468Z,23.23
2022-09-28T13:28:21.337Z,23.24
2022-09-28T13:31:33.954Z,23.26
2022-09-28T13:34:41.414Z,23.27
2022-09-28T13:37:44.167Z,23.24
2022-09-28T13:41:09.965Z,23.21
2022-09-28T13:44:12.975Z,23.12
2022-09-28T13:47:45.253Z,22.97
2022-09-28T13:51:06.348Z,22.82
2022-09-28T13:54:44.639Z,22.75
2022-09-28T13:57:58.374Z,22.70
2022-09-28T14:01:07.536Z,22.64
2022-09-28T14:04:19.144Z,22.61
2022-09-28T14:07:25.029Z,22.55
2022-09-28T14:10:54.037Z,22.51
2022-09-28T14:14:25.146Z,22.48
2022-09-28T14:17:53.427Z,22.47
2022-09-28T14:21:02.109Z,22.46
2022-09-28T14:24:13.918Z,22.43
2022-09-28T14:27:19.431Z,22.40
2022-09-28T14:30:24.214Z,22.39
2022-09-28T14:33:29.685Z,22.36
2022-09-28T14:37:01.222Z,22.36
2022-09-28T14:40:50.678Z,22.33
2022-09-28T14:44:00.734Z,22.32
2022-09-28T14:47:34.800Z,22.31
2022-09-28T14:50:37.550Z,22.30
2022-09-28T14:53:40.434Z,22.28
2022-09-28T14:56:52.160Z,22.26
2022-09-28T14:59:59.779Z,22.23
2022-09-28T15:03:10.218Z,22.22
2022-09-28T15:06:16.320Z,22.20
2022-09-28T15:09:36.799Z,22.20
2022-09-28T15:12:43.907Z,22.19
2022-09-28T15:15:54.430Z,22.17
2022-09-28T15:19:02.902Z,22.16
2022-09-28T15:22:15.555Z,22.13
2022-09-28T15:25:22.743Z,22.12
2022-09-28T15:28:25.538Z,22.11
2022-09-28T15:31:34.142Z,22.10
2022-09-28T15:34:52.246Z,22.08
2022-09-28T15:37:55.792Z,22.07
2022-09-28T15:41:02.907Z,22.06
2022-09-28T15:44:29.311Z,22.06
2022-09-28T15:47:34.382Z,22.04
2022-09-28T15:50:45.989Z,22.03
2022-09-28T15:54:04.424Z,22.04
2022-09-28T15:57:36.070Z,22.03
2022-09-28T16:00:40.373Z,22.01
2022-09-28T16:03:43.300Z,22.01
2022-09-28T16:07:05.453Z,21.96
2022-09-28T16:10:35.343Z,21.98
2022-09-28T16:14:06.968Z,21.98
2022-09-28T16:17:35.655Z,21.98
2022-09-28T16:20:42.800Z,21.96
2022-09-28T16:23:52.330Z,21.96
2022-09-28T16:27:16.521Z,21.94
2022-09-28T16:30:27.410Z,21.94
2022-09-28T16:33:39.539Z,21.91
2022-09-28T16:36:45.669Z,21.93
2022-09-28T16:39:49.003Z,21.92
2022-09-28T16:42:56.251Z,21.91
2022-09-28T16:46:01.374Z,21.91
2022-09-28T16:49:07.824Z,21.90
2022-09-28T16:52:13.751Z,21.88
2022-09-28T16:55:39.657Z,21.88
2022-09-28T16:58:39.260Z,21.87
2022-09-28T17:01:43.955Z,21.87
2022-09-28T17:04:47.812Z,21.84
2022-09-28T17:08:00.651Z,21.85
2022-09-28T17:11:24.019Z,21.85
2022-09-28T17:14:27.017Z,21.80
2022-09-28T17:17:31.439Z,21.83
2022-09-28T17:20:37.689Z,21.84
2022-09-28T17:23:40.381Z,21.80
2022-09-28T17:26:45.022Z,21.81
2022-09-28T17:29:48.254Z,21.80
2022-09-28T17:32:51.647Z,21.80
2022-09-28T17:36:00.594Z,21.79
2022-09-28T17:39:04.153Z,21.79
2022-09-28T17:42:06.866Z,21.78
2022-09-28T17:45:09.770Z,21.76
2022-09-28T17:48:17.793Z,21.77
2022-09-28T17:51:20.525Z,21.77
2022-09-28T17:54:23.392Z,21.77
2022-09-28T17:57:26.886Z,21.75
2022-09-28T18:00:29.563Z,21.75
2022-09-28T18:03:32.240Z,21.75
2022-09-28T18:06:37.359Z,21.73
2022-09-28T18:09:40.198Z,21.74
2022-09-28T18:12:45.753Z,21.73
2022-09-28T18:15:51.664Z,21.72
2022-09-28T18:18:54.619Z,21.72
2022-09-28T18:21:58.470Z,21.71
2022-09-28T18:25:01.557Z,21.72
2022-09-28T18:28:04.196Z,21.71
2022-09-28T18:31:08.937Z,21.69
2022-09-28T18:34:13.672Z,21.69
2022-09-28T18:37:16.518Z,21.68
2022-09-28T18:40:20.205Z,21.66
2022-09-28T18:43:23.325Z,21.68
2022-09-28T18:46:27.949Z,21.68
2022-09-28T18:49:31.602Z,21.66
2022-09-28T18:52:38.591Z,21.67
2022-09-28T18:55:42.992Z,21.66
2022-09-28T18:58:46.467Z,21.65
2022-09-28T19:01:49.432Z,21.64
2022-09-28T19:04:53.055Z,21.65
2022-09-28T19:07:55.767Z,21.64
2022-09-28T19:11:09.555Z,21.65
2022-09-28T19:14:15.129Z,21.64
2022-09-28T19:17:18.234Z,21.64
2022-09-28T19:20:21.253Z,21.63
2022-09-28T19:23:26.852Z,21.57
2022-09-28T19:26:30.350Z,21.62
2022-09-28T19:29:36.011Z,21.61
2022-09-28T19:32:39.010Z,21.61
2022-09-28T19:35:41.723Z,21.61
2022-09-28T19:38:45.462Z,21.60
2022-09-28T19:41:51.537Z,21.61
2022-09-28T19:44:54.249Z,21.59
2022-09-28T19:47:59.575Z,21.58
2022-09-28T19:51:07.399Z,21.58
2022-09-28T19:54:11.332Z,21.58
2022-09-28T19:57:16.098Z,21.58
2022-09-28T20:00:19.132Z,21.57
2022-09-28T20:03:21.923Z,21.56
2022-09-28T20:06:25.904Z,21.56
2022-09-28T20:09:28.794Z,21.55
2022-09-28T20:12:31.473Z,21.56
2022-09-28T20:15:35.954Z,21.52
2022-09-28T20:18:40.346Z,21.56
2022-09-28T20:21:43.057Z,21.55
2022-09-28T20:24:45.887Z,21.53
2022-09-28T20:27:48.506Z,21.55
2022-09-28T20:30:51.275Z,21.54
2022-09-28T20:33:54.020Z,21.53
2022-09-28T20:36:56.854Z,21.52
2022-09-28T20:40:01.565Z,21.52
2022-09-28T20:43:07.215Z,21.51
2022-09-28T20:46:10.906Z,21.52
2022-09-28T20:49:13.720Z,21.51
2022-09-28T20:52:17.217Z,21.49
2022-09-28T20:55:19.896Z,21.50
2022-09-28T20:58:22.602Z,21.50
2022-09-28T21:01:27.529Z,21.48
2022-09-28T21:04:30.342Z,21.49
2022-09-28T21:07:33.308Z,21.50
2022-09-28T21:10:36.054Z,21.49
2022-09-28T21:13:41.615Z,21.47
2022-09-28T21:16:44.311Z,21.48
2022-09-28T21:19:46.955Z,21.49
2022-09-28T21:22:49.634Z,21.46
2022-09-28T21:26:05.944Z,21.47
2022-09-28T21:29:13.886Z,21.47
2022-09-28T21:32:17.097Z,21.44
2022-09-28T21:35:19.825Z,21.45
2022-09-28T21:38:22.591Z,21.45
2022-09-28T21:41:25.609Z,21.45
2022-09-28T21:44:28.277Z,21.46
2022-09-28T21:47:30.996Z,21.44
2022-09-28T21:50:33.721Z,21.46
2022-09-28T21:53:38.003Z,21.45
2022-09-28T21:56:40.899Z,21.45
2022-09-28T21:59:43.573Z,21.45
2022-09-28T22:02:46.528Z,21.44
2022-09-28T22:05:51.394Z,21.45
2022-09-28T22:08:54.065Z,21.44
2022-09-28T22:11:56.762Z,21.42
2022-09-28T22:14:59.594Z,21.42
2022-09-28T22:18:02.283Z,21.42
2022-09-28T22:21:15.226Z,21.43
2022-09-28T22:24:17.919Z,21.42
2022-09-28T22:27:20.656Z,21.43
2022-09-28T22:30:23.341Z,21.42
2022-09-28T22:33:26.612Z,21.43
2022-09-28T22:36:29.675Z,21.43
2022-09-28T22:39:37.479Z,21.42
2022-09-28T22:42:40.569Z,21.39
2022-09-28T22:45:43.513Z,21.41
2022-09-28T22:48:57.691Z,21.39
2022-09-28T22:52:00.506Z,21.41
2022-09-28T22:55:03.239Z,21.41
2022-09-28T22:58:05.990Z,21.37
2022-09-28T23:01:21.018Z,21.41
2022-09-28T23:04:23.830Z,21.39
2022-09-28T23:07:26.563Z,21.38
2022-09-28T23:10:29.465Z,21.38
2022-09-28T23:13:32.591Z,21.39
2022-09-28T23:16:35.264Z,21.38
2022-09-28T23:19:37.991Z,21.37
2022-09-28T23:22:40.672Z,21.38
2022-09-28T23:25:43.300Z,21.38
2022-09-28T23:28:46.549Z,21.36
2022-09-28T23:31:49.247Z,21.35
2022-09-28T23:34:51.879Z,21.35
2022-09-28T23:37:54.498Z,21.33
2022-09-28T23:40:57.478Z,21.36
2022-09-28T23:44:00.401Z,21.35
2022-09-28T23:47:03.177Z,21.36
2022-09-28T23:50:06.877Z,21.35
2022-09-28T23:53:10.728Z,21.33
2022-09-28T23:56:14.481Z,21.33
2022-09-28T23:59:17.462Z,21.33
